Time;durP1;ratioP1;P1;durP2;ratioP2;P2;SDS_P1;SDS_P2;PMS_P1;PMS_P2;Temp;Humidity;BMP_temperature;BMP_pressure;BME280_temperature;BME280_humidity;BME280_pressure;Samples;Min_cycle;Max_cycle;Signal;HPM_P1;HPM_P2
2023/09/15 00:00:12;;;;;;;8.23;4.65;;;11.50;99.90;;;;;;4967815;28;20054;-78
2023/09/15 00:02:37;;;;;;;7.97;4.15;;;11.50;99.90;;;;;;4955222;28;20062;-77
2023/09/15 00:05:04;;;;;;;11.27;4.63;;;11.60;99.90;;;;;;4956363;28;20042;-77
2023/09/15 00:07:31;;;;;;;7.65;4.63;;;11.40;99.90;;;;;;4967214;28;20403;-79
2023/09/15 00:09:58;;;;;;;5.95;3.80;;;11.40;99.90;;;;;;4946324;28;20035;-77
2023/09/15 00:12:24;;;;;;;12.20;5.20;;;11.30;99.90;;;;;;4971032;28;20035;-78
2023/09/15 00:14:49;;;;;;;7.43;4.55;;;11.30;99.90;;;;;;4954738;28;20093;-78
2023/09/15 00:17:15;;;;;;;6.18;4.20;;;11.30;99.90;;;;;;4971454;28;20064;-77
2023/09/15 00:19:41;;;;;;;9.20;4.65;;;11.30;99.90;;;;;;4973241;28;20039;-77
2023/09/15 00:22:07;;;;;;;10.82;5.60;;;11.20;99.90;;;;;;4970076;28;20110;-77
2023/09/15 00:24:35;;;;;;;8.30;4.40;;;11.30;99.90;;;;;;4979692;28;20041;-77
2023/09/15 00:27:01;;;;;;;9.75;4.60;;;11.30;99.90;;;;;;4968841;28;20561;-76
2023/09/15 00:29:26;;;;;;;8.63;4.47;;;11.30;99.90;;;;;;4954134;28;20415;-77
2023/09/15 00:31:52;;;;;;;5.90;4.22;;;11.20;99.90;;;;;;4969059;28;20027;-77
2023/09/15 00:34:18;;;;;;;6.22;4.13;;;11.20;99.90;;;;;;4954977;28;20027;-77
2023/09/15 00:36:45;;;;;;;5.93;4.07;;;11.20;99.90;;;;;;4953355;28;20031;-77
2023/09/15 00:39:11;;;;;;;7.78;5.03;;;11.20;99.90;;;;;;4970206;28;20126;-76
2023/09/15 00:41:36;;;;;;;10.63;5.00;;;11.10;99.90;;;;;;4973838;28;20106;-77
2023/09/15 00:44:02;;;;;;;6.93;4.75;;;11.00;99.90;;;;;;4967646;28;20062;-77
2023/09/15 00:46:30;;;;;;;9.38;5.07;;;11.00;99.90;;;;;;4970994;28;20434;-78
2023/09/15 00:48:56;;;;;;;9.45;4.78;;;11.00;99.90;;;;;;4956735;28;20034;-77
2023/09/15 00:51:23;;;;;;;7.82;4.60;;;10.90;99.90;;;;;;4930536;28;20043;-77
2023/09/15 00:53:48;;;;;;;6.20;4.30;;;11.00;99.90;;;;;;4968313;28;20054;-77
2023/09/15 00:56:14;;;;;;;9.02;4.18;;;10.90;99.90;;;;;;4969488;28;20039;-76
2023/09/15 00:58:40;;;;;;;13.35;4.72;;;10.90;99.90;;;;;;4968727;28;20035;-77
2023/09/15 01:01:06;;;;;;;4.93;4.07;;;10.90;99.90;;;;;;4970071;28;20053;-77
2023/09/15 01:03:34;;;;;;;6.60;4.38;;;10.90;99.90;;;;;;4968546;28;20039;-77
2023/09/15 01:06:00;;;;;;;8.68;4.97;;;10.90;99.90;;;;;;4969483;28;20054;-76
2023/09/15 01:08:25;;;;;;;10.05;4.90;;;10.90;99.90;;;;;;4975013;28;20065;-77
2023/09/15 01:10:51;;;;;;;7.88;4.10;;;10.80;99.90;;;;;;4977262;28;20034;-77
2023/09/15 01:13:17;;;;;;;7.25;4.05;;;10.70;99.90;;;;;;4958801;28;20033;-77
2023/09/15 01:16:01;;;;;;;12.57;5.07;;;10.80;99.90;;;;;;4970957;28;20066;-77
2023/09/15 01:18:40;;;;;;;8.48;3.67;;;10.80;99.90;;;;;;4973918;28;20086;-77
2023/09/15 01:21:18;;;;;;;12.93;4.55;;;10.80;99.90;;;;;;4972145;28;20111;-77
2023/09/15 01:24:19;;;;;;;10.25;4.53;;;10.80;99.90;;;;;;4974106;28;20138;-77
2023/09/15 01:27:24;;;;;;;7.50;4.80;;;10.60;99.90;;;;;;4973845;28;20042;-77
2023/09/15 01:29:53;;;;;;;6.40;4.15;;;10.60;99.90;;;;;;4988154;28;20581;-77
2023/09/15 01:32:19;;;;;;;7.88;4.40;;;10.60;99.90;;;;;;4976995;28;20033;-77
2023/09/15 01:34:50;;;;;;;9.25;4.10;;;10.60;99.90;;;;;;4955781;28;20038;-77
2023/09/15 01:37:15;;;;;;;11.30;4.35;;;10.60;99.90;;;;;;4972795;28;20158;-78
2023/09/15 01:39:41;;;;;;;8.75;4.43;;;10.60;99.90;;;;;;4974142;28;20538;-79
2023/09/15 01:42:06;;;;;;;5.70;4.18;;;10.50;99.90;;;;;;4958284;28;20551;-78
2023/09/15 01:44:32;;;;;;;7.32;4.35;;;10.60;99.90;;;;;;4973648;28;20023;-78
2023/09/15 01:46:57;;;;;;;6.63;4.35;;;10.60;99.90;;;;;;4966792;28;20045;-78
2023/09/15 01:49:23;;;;;;;8.48;4.50;;;10.50;99.90;;;;;;4959027;28;20104;-78
2023/09/15 01:51:49;;;;;;;6.97;3.83;;;10.60;99.90;;;;;;4972662;28;20072;-77
2023/09/15 01:54:14;;;;;;;8.95;4.22;;;10.50;99.90;;;;;;4974685;28;20038;-79
2023/09/15 01:56:40;;;;;;;8.20;4.28;;;10.40;99.90;;;;;;4958709;28;20045;-78
2023/09/15 01:59:06;;;;;;;7.47;4.88;;;10.40;99.90;;;;;;4972736;28;20066;-78
2023/09/15 02:01:32;;;;;;;6.70;4.20;;;10.40;99.90;;;;;;4958046;28;20050;-80
2023/09/15 02:03:58;;;;;;;6.65;4.28;;;10.50;99.90;;;;;;4956579;28;20066;-79
2023/09/15 02:06:24;;;;;;;5.70;4.22;;;10.40;99.90;;;;;;4972699;28;20104;-79
2023/09/15 02:08:50;;;;;;;7.88;4.30;;;10.30;99.90;;;;;;4953005;28;20042;-79
2023/09/15 02:11:15;;;;;;;7.68;4.45;;;10.30;99.90;;;;;;4971724;28;20042;-79
2023/09/15 02:13:41;;;;;;;5.97;4.22;;;10.30;99.90;;;;;;4973042;28;20070;-76
2023/09/15 02:16:07;;;;;;;7.63;4.05;;;10.30;99.90;;;;;;4973706;28;20502;-78
2023/09/15 02:18:32;;;;;;;8.20;3.78;;;10.30;99.90;;;;;;4976653;28;20030;-78
2023/09/15 02:20:58;;;;;;;7.18;4.18;;;10.30;99.90;;;;;;4973393;28;20039;-79
2023/09/15 02:23:24;;;;;;;10.05;4.78;;;10.20;99.90;;;;;;4973566;28;20126;-79
2023/09/15 02:25:50;;;;;;;8.38;4.40;;;10.20;99.90;;;;;;4973169;28;20463;-78
2023/09/15 02:28:16;;;;;;;9.15;4.13;;;10.30;99.90;;;;;;4970110;28;20034;-78
2023/09/15 02:30:41;;;;;;;9.00;4.15;;;10.20;99.90;;;;;;4974807;28;20049;-78
2023/09/15 02:33:07;;;;;;;8.43;4.43;;;10.20;99.90;;;;;;4974355;28;20211;-78
2023/09/15 02:35:33;;;;;;;9.25;4.10;;;10.20;99.90;;;;;;4971024;28;20057;-78
2023/09/15 02:37:59;;;;;;;11.70;4.28;;;10.20;99.90;;;;;;4971994;28;20141;-78
2023/09/15 02:40:24;;;;;;;12.20;4.47;;;10.20;99.90;;;;;;4975120;28;20406;-78
2023/09/15 02:42:50;;;;;;;7.72;4.35;;;10.10;99.90;;;;;;4975282;28;20027;-78
2023/09/15 02:45:16;;;;;;;5.13;4.05;;;10.10;99.90;;;;;;4971770;28;20049;-78
2023/09/15 02:47:41;;;;;;;10.63;4.40;;;10.10;99.90;;;;;;4979698;28;20037;-78
2023/09/15 02:50:07;;;;;;;6.57;4.32;;;10.00;99.90;;;;;;4948655;28;20045;-78
2023/09/15 02:52:33;;;;;;;7.75;4.30;;;10.00;99.90;;;;;;4973594;28;20065;-77
2023/09/15 02:55:00;;;;;;;8.07;4.05;;;10.00;99.90;;;;;;4972305;28;20038;-77
2023/09/15 02:57:27;;;;;;;6.50;4.03;;;10.00;99.90;;;;;;4972566;28;20045;-78
2023/09/15 02:59:53;;;;;;;7.60;4.07;;;10.00;99.90;;;;;;4973431;28;20059;-78
2023/09/15 03:02:20;;;;;;;9.48;4.30;;;10.00;99.90;;;;;;4971959;28;20049;-78
2023/09/15 03:04:48;;;;;;;6.78;4.45;;;9.90;99.90;;;;;;4970702;28;20090;-78
2023/09/15 03:07:14;;;;;;;8.15;4.07;;;9.90;99.90;;;;;;4953918;28;20031;-78
2023/09/15 03:09:40;;;;;;;8.15;4.30;;;9.80;99.90;;;;;;4958617;28;20042;-77
2023/09/15 03:12:05;;;;;;;12.40;4.53;;;9.80;99.90;;;;;;4961528;28;20042;-78
2023/09/15 03:14:32;;;;;;;6.85;4.07;;;9.90;99.90;;;;;;4974678;28;20034;-77
2023/09/15 03:16:57;;;;;;;8.35;4.43;;;9.80;99.90;;;;;;4961255;28;20061;-78
2023/09/15 03:19:24;;;;;;;8.32;4.38;;;9.80;99.90;;;;;;4974488;28;20495;-78
2023/09/15 03:21:49;;;;;;;5.20;3.90;;;9.80;99.90;;;;;;4955297;28;20066;-78
2023/09/15 03:24:15;;;;;;;7.05;4.63;;;9.80;99.90;;;;;;4971536;28;20389;-78
2023/09/15 03:26:41;;;;;;;7.63;4.65;;;9.80;99.90;;;;;;4956716;28;20522;-78
2023/09/15 03:29:07;;;;;;;8.75;4.22;;;9.90;99.90;;;;;;4953442;28;20069;-77
2023/09/15 03:31:32;;;;;;;6.65;3.85;;;9.80;99.90;;;;;;4969153;28;20045;-77
2023/09/15 03:34:00;;;;;;;9.52;4.22;;;9.80;99.90;;;;;;4969500;28;20382;-77
2023/09/15 03:36:29;;;;;;;5.68;4.05;;;9.80;99.90;;;;;;4969278;28;20027;-78
2023/09/15 03:38:57;;;;;;;10.20;4.53;;;9.80;99.90;;;;;;4953540;28;20041;-77
2023/09/15 03:41:27;;;;;;;8.52;4.45;;;9.70;99.90;;;;;;4967339;28;20035;-77
2023/09/15 03:43:53;;;;;;;10.95;4.15;;;9.70;99.90;;;;;;4968423;28;20038;-77
2023/09/15 03:46:19;;;;;;;5.80;4.03;;;9.70;99.90;;;;;;4968034;28;20089;-77
2023/09/15 03:48:44;;;;;;;8.57;4.25;;;9.70;99.90;;;;;;4974171;28;20039;-78
2023/09/15 03:51:10;;;;;;;6.25;4.07;;;9.60;99.90;;;;;;4953694;28;20090;-79
2023/09/15 03:53:35;;;;;;;7.72;4.22;;;9.70;99.90;;;;;;4970928;28;20122;-78
2023/09/15 03:56:01;;;;;;;7.00;4.70;;;9.60;99.90;;;;;;4985392;28;20384;-77
2023/09/15 03:58:28;;;;;;;7.07;4.10;;;9.60;99.90;;;;;;4971297;28;20034;-78
2023/09/15 04:00:53;;;;;;;8.63;3.85;;;9.70;99.90;;;;;;4966746;28;20046;-78
2023/09/15 04:03:20;;;;;;;11.10;4.38;;;9.70;99.90;;;;;;4971738;28;20122;-77
2023/09/15 04:05:46;;;;;;;5.82;3.97;;;9.60;99.90;;;;;;4949327;28;20570;-77
2023/09/15 04:08:13;;;;;;;5.63;4.10;;;9.60;99.90;;;;;;4971995;28;20150;-77
2023/09/15 04:10:38;;;;;;;7.35;4.72;;;9.60;99.90;;;;;;4969245;28;20345;-77
2023/09/15 04:13:04;;;;;;;8.30;4.22;;;9.50;99.90;;;;;;4961252;28;20740;-77
2023/09/15 04:15:29;;;;;;;4.63;4.00;;;9.50;99.90;;;;;;4968205;28;20062;-78
2023/09/15 04:17:55;;;;;;;7.85;4.10;;;9.50;99.90;;;;;;4968623;28;20038;-78
2023/09/15 04:20:21;;;;;;;7.10;3.40;;;9.50;99.90;;;;;;4966355;28;20062;-77
2023/09/15 04:22:46;;;;;;;9.60;3.33;;;9.50;99.90;;;;;;4966369;28;20499;-77
2023/09/15 04:25:12;;;;;;;5.75;3.85;;;9.40;99.90;;;;;;4969337;28;20041;-78
2023/09/15 04:27:37;;;;;;;9.93;4.13;;;9.40;99.90;;;;;;4967003;28;20045;-78
2023/09/15 04:30:04;;;;;;;6.75;4.40;;;9.40;99.90;;;;;;4969071;28;20066;-78
2023/09/15 04:32:30;;;;;;;8.10;3.88;;;9.40;99.90;;;;;;4968759;28;20379;-79
2023/09/15 04:34:55;;;;;;;6.47;4.20;;;9.40;99.90;;;;;;4967666;28;20090;-79
2023/09/15 04:37:21;;;;;;;6.55;3.97;;;9.40;99.90;;;;;;4969041;28;20066;-79
2023/09/15 04:39:49;;;;;;;7.60;5.07;;;9.30;99.90;;;;;;4950999;28;20039;-79
2023/09/15 04:42:15;;;;;;;9.88;5.32;;;9.30;99.90;;;;;;4973944;28;20089;-79
2023/09/15 04:44:40;;;;;;;13.20;4.22;;;9.30;99.90;;;;;;4954422;28;20031;-79
2023/09/15 04:47:06;;;;;;;13.38;4.95;;;9.30;99.90;;;;;;4973110;28;20089;-79
2023/09/15 04:49:31;;;;;;;7.97;4.25;;;9.30;99.90;;;;;;4973237;28;20023;-79
2023/09/15 04:51:57;;;;;;;8.45;4.28;;;9.30;99.90;;;;;;4958106;28;20039;-79
2023/09/15 04:54:22;;;;;;;6.50;3.47;;;9.30;99.90;;;;;;4977689;28;20193;-79
2023/09/15 04:56:48;;;;;;;7.35;3.92;;;9.30;99.90;;;;;;4985660;28;20069;-79
2023/09/15 04:59:17;;;;;;;6.43;4.03;;;9.30;99.90;;;;;;4975795;28;20058;-79
2023/09/15 05:01:44;;;;;;;9.27;4.28;;;9.30;99.90;;;;;;4956202;28;20511;-79
2023/09/15 05:04:10;;;;;;;5.18;4.15;;;9.10;99.90;;;;;;4973570;28;20384;-79
2023/09/15 05:06:35;;;;;;;7.82;3.83;;;9.20;99.90;;;;;;4974854;28;20395;-79
2023/09/15 05:09:04;;;;;;;8.98;4.25;;;9.10;99.90;;;;;;4973263;28;20166;-79
2023/09/15 05:11:30;;;;;;;7.00;4.18;;;9.20;99.90;;;;;;4973994;28;20073;-79
2023/09/15 05:13:56;;;;;;;7.80;3.97;;;9.30;99.90;;;;;;4970037;28;20078;-78
2023/09/15 05:16:23;;;;;;;10.05;4.13;;;9.30;99.90;;;;;;4956805;28;20508;-79
2023/09/15 05:18:48;;;;;;;8.95;4.47;;;9.20;99.90;;;;;;4960982;28;20042;-79
2023/09/15 05:21:15;;;;;;;6.25;3.42;;;9.20;99.90;;;;;;4972968;28;20034;-79
2023/09/15 05:23:40;;;;;;;8.52;4.47;;;9.20;99.90;;;;;;4971879;28;20027;-79
2023/09/15 05:26:07;;;;;;;7.18;3.92;;;9.20;99.90;;;;;;4978902;28;20035;-79
2023/09/15 05:28:33;;;;;;;9.00;3.40;;;9.20;99.90;;;;;;4973832;28;20042;-79
2023/09/15 05:30:59;;;;;;;10.07;4.75;;;9.20;99.90;;;;;;4973524;28;20398;-80
2023/09/15 05:33:27;;;;;;;7.95;4.15;;;9.20;99.90;;;;;;4971125;28;20497;-79
2023/09/15 05:35:56;;;;;;;9.32;4.30;;;9.30;99.90;;;;;;4970531;28;20066;-78
2023/09/15 05:38:25;;;;;;;8.70;5.05;;;9.20;99.90;;;;;;4957758;28;20663;-78
2023/09/15 05:40:51;;;;;;;6.55;4.20;;;9.20;99.90;;;;;;4973124;28;20706;-78
2023/09/15 05:43:17;;;;;;;8.50;4.70;;;9.30;99.90;;;;;;4969578;28;20042;-77
2023/09/15 05:45:44;;;;;;;11.27;4.28;;;9.30;99.90;;;;;;4971864;28;20030;-79
2023/09/15 05:48:16;;;;;;;15.02;5.68;;;9.30;99.90;;;;;;4972533;28;20043;-78
2023/09/15 05:50:41;;;;;;;8.00;4.93;;;9.30;99.90;;;;;;4966270;28;20039;-77
2023/09/15 05:53:07;;;;;;;13.23;5.22;;;9.30;99.90;;;;;;4972099;28;20407;-78
2023/09/15 05:55:32;;;;;;;11.00;5.18;;;9.30;99.90;;;;;;4968204;28;20101;-77
2023/09/15 05:57:58;;;;;;;8.40;4.78;;;9.40;99.90;;;;;;4971134;28;20070;-77
2023/09/15 06:00:24;;;;;;;9.60;4.97;;;9.40;99.90;;;;;;4955189;28;20499;-77
2023/09/15 06:02:50;;;;;;;8.88;5.00;;;9.50;99.90;;;;;;4972534;28;21153;-76
2023/09/15 06:05:19;;;;;;;11.00;4.90;;;9.50;99.90;;;;;;4968321;28;20030;-77
2023/09/15 06:07:49;;;;;;;7.95;5.07;;;9.60;99.90;;;;;;4969230;28;20023;-77
2023/09/15 06:10:15;;;;;;;9.98;4.60;;;9.60;99.90;;;;;;4966152;28;20091;-77
2023/09/15 06:12:42;;;;;;;12.15;4.85;;;9.70;99.90;;;;;;4973069;28;20493;-78
2023/09/15 06:15:08;;;;;;;7.30;4.55;;;9.80;99.90;;;;;;4954714;28;20035;-77
2023/09/15 06:17:35;;;;;;;12.07;4.82;;;9.90;99.90;;;;;;4986696;28;20590;-77
2023/09/15 06:20:01;;;;;;;10.00;5.18;;;9.90;99.90;;;;;;4969301;28;20406;-77
2023/09/15 06:22:26;;;;;;;10.05;4.95;;;10.00;99.90;;;;;;4972656;28;20109;-78
2023/09/15 06:24:52;;;;;;;10.70;5.50;;;10.10;99.90;;;;;;4953015;28;20055;-77
2023/09/15 06:27:18;;;;;;;11.68;5.32;;;10.20;99.90;;;;;;4969852;28;20077;-77
2023/09/15 06:29:44;;;;;;;15.48;5.43;;;10.20;99.90;;;;;;5001185;28;20030;-77
2023/09/15 06:32:09;;;;;;;11.55;5.70;;;10.30;99.90;;;;;;4974571;28;20586;-77
2023/09/15 06:34:35;;;;;;;10.80;5.25;;;10.60;99.90;;;;;;4958956;28;20027;-77
2023/09/15 06:37:01;;;;;;;13.27;5.63;;;10.60;99.90;;;;;;4949680;28;20031;-77
2023/09/15 06:39:28;;;;;;;16.48;6.07;;;10.80;99.90;;;;;;4971083;28;20117;-76
2023/09/15 06:41:53;;;;;;;10.40;5.43;;;10.80;99.90;;;;;;4973154;28;20030;-78
2023/09/15 06:44:19;;;;;;;8.00;4.97;;;10.80;99.90;;;;;;4974790;28;20085;-77
2023/09/15 06:46:45;;;;;;;14.25;6.07;;;11.00;99.90;;;;;;4970828;28;20050;-78
2023/09/15 06:49:11;;;;;;;9.82;5.20;;;11.10;99.90;;;;;;4967130;28;20494;-77
2023/09/15 06:51:37;;;;;;;13.40;5.43;;;11.30;99.90;;;;;;4955032;28;20046;-77
2023/09/15 06:54:02;;;;;;;8.50;5.20;;;11.50;99.90;;;;;;4974093;28;20442;-77
2023/09/15 06:56:28;;;;;;;16.10;5.30;;;11.60;99.90;;;;;;4975157;28;20022;-77
2023/09/15 06:58:54;;;;;;;12.23;5.47;;;11.50;99.90;;;;;;4969353;28;20035;-76
2023/09/15 07:01:19;;;;;;;15.65;6.22;;;11.50;99.90;;;;;;4973821;28;20053;-76
2023/09/15 07:03:45;;;;;;;10.45;5.72;;;11.70;99.90;;;;;;4969183;28;20031;-77
2023/09/15 07:06:11;;;;;;;13.30;5.85;;;11.80;99.90;;;;;;4975835;28;20033;-76
2023/09/15 07:08:36;;;;;;;8.43;5.68;;;12.10;99.90;;;;;;4968641;28;20053;-77
2023/09/15 07:11:02;;;;;;;9.10;4.85;;;12.20;99.90;;;;;;4946003;28;20509;-77
2023/09/15 07:13:27;;;;;;;5.88;3.60;;;12.40;99.90;;;;;;4969839;28;20550;-76
2023/09/15 07:15:53;;;;;;;9.77;4.55;;;12.60;99.90;;;;;;4968900;28;20031;-77
2023/09/15 07:18:18;;;;;;;7.40;4.68;;;12.80;99.90;;;;;;4955972;28;20042;-76
2023/09/15 07:20:44;;;;;;;8.68;4.82;;;13.00;99.90;;;;;;4970486;28;20069;-76
2023/09/15 07:23:09;;;;;;;8.95;4.63;;;12.90;99.90;;;;;;4955672;28;20035;-77
2023/09/15 07:25:35;;;;;;;10.48;5.50;;;13.10;99.90;;;;;;4966110;28;20035;-77
2023/09/15 07:28:01;;;;;;;8.93;5.30;;;13.10;99.90;;;;;;4971022;28;20038;-77
2023/09/15 07:30:27;;;;;;;7.95;4.65;;;13.10;99.90;;;;;;4972416;28;20553;-77
2023/09/15 07:32:52;;;;;;;9.70;3.40;;;13.40;99.90;;;;;;4955367;28;20720;-77
2023/09/15 07:35:18;;;;;;;8.07;4.75;;;13.40;99.90;;;;;;4957319;28;20114;-77
2023/09/15 07:37:44;;;;;;;5.75;4.78;;;13.50;99.90;;;;;;4956066;28;20069;-77
2023/09/15 07:40:10;;;;;;;7.38;4.63;;;13.50;99.90;;;;;;4972979;28;20039;-78
2023/09/15 07:42:36;;;;;;;5.55;3.08;;;13.50;99.90;;;;;;4958419;28;20041;-77
2023/09/15 07:45:02;;;;;;;4.32;1.90;;;13.80;99.90;;;;;;4972172;28;20043;-79
2023/09/15 07:47:27;;;;;;;4.70;2.22;;;14.20;99.90;;;;;;4973757;28;20170;-78
2023/09/15 07:49:53;;;;;;;6.35;3.03;;;14.30;99.90;;;;;;4969039;28;20045;-77
2023/09/15 07:52:19;;;;;;;2.97;2.53;;;14.60;99.90;;;;;;4974579;28;20058;-77
2023/09/15 07:54:45;;;;;;;9.38;3.88;;;14.70;99.90;;;;;;4970308;28;20054;-78
2023/09/15 07:57:10;;;;;;;7.47;3.95;;;14.80;99.90;;;;;;4972173;28;20450;-77
2023/09/15 07:59:36;;;;;;;5.97;3.03;;;15.00;99.90;;;;;;4969933;28;20088;-77
2023/09/15 08:02:04;;;;;;;3.25;2.13;;;15.20;99.90;;;;;;4979566;28;20030;-78
2023/09/15 08:04:29;;;;;;;5.82;3.60;;;15.30;99.90;;;;;;4968017;28;20039;-78
2023/09/15 08:06:55;;;;;;;6.85;3.85;;;15.50;99.90;;;;;;4284274;28;9999739;-77
2023/09/15 08:09:20;;;;;;;6.18;3.13;;;15.40;99.90;;;;;;4967851;28;20091;-77
2023/09/15 08:11:46;;;;;;;9.45;2.95;;;15.40;99.90;;;;;;4949858;28;20464;-78
2023/09/15 08:14:12;;;;;;;4.05;2.72;;;15.70;99.90;;;;;;4966567;28;20046;-77
2023/09/15 08:16:37;;;;;;;6.45;2.78;;;16.10;99.90;;;;;;4967960;28;20038;-77
2023/09/15 08:19:03;;;;;;;7.15;3.40;;;16.00;99.90;;;;;;4969218;28;20446;-77
2023/09/15 08:21:29;;;;;;;6.35;3.05;;;16.20;99.90;;;;;;4970896;28;20035;-77
2023/09/15 08:23:55;;;;;;;5.28;3.10;;;16.30;99.90;;;;;;4969405;28;20495;-77
2023/09/15 08:26:20;;;;;;;3.63;2.00;;;16.40;99.90;;;;;;4971542;28;20513;-77
2023/09/15 08:28:46;;;;;;;6.00;2.97;;;16.30;99.90;;;;;;4985423;28;20054;-78
2023/09/15 08:31:12;;;;;;;3.47;1.95;;;16.90;99.90;;;;;;4970163;28;20113;-77
2023/09/15 08:33:37;;;;;;;10.13;3.05;;;17.20;99.90;;;;;;5003910;28;20038;-77
2023/09/15 08:36:03;;;;;;;6.30;2.65;;;17.30;99.90;;;;;;4969158;28;20038;-77
2023/09/15 08:38:31;;;;;;;4.57;2.00;;;17.40;99.90;;;;;;4971648;28;20183;-78
2023/09/15 08:41:01;;;;;;;5.47;1.73;;;17.30;99.90;;;;;;4955765;28;20519;-77
2023/09/15 08:43:27;;;;;;;5.18;2.58;;;17.70;99.90;;;;;;4972413;28;20039;-77
2023/09/15 08:45:53;;;;;;;4.25;2.35;;;17.90;99.90;;;;;;4975084;28;20113;-77
2023/09/15 08:48:21;;;;;;;6.10;2.13;;;18.10;99.90;;;;;;4975299;28;20518;-77
2023/09/15 08:50:47;;;;;;;13.25;2.58;;;18.40;99.90;;;;;;4955122;28;20039;-77
2023/09/15 08:53:12;;;;;;;8.13;3.35;;;18.20;99.90;;;;;;4973751;28;20383;-77
2023/09/15 08:55:38;;;;;;;3.42;2.15;;;17.90;99.90;;;;;;4974941;28;20042;-78
2023/09/15 08:58:04;;;;;;;11.57;2.40;;;18.30;99.90;;;;;;4986568;28;20045;-77
2023/09/15 09:00:29;;;;;;;6.00;2.80;;;18.40;99.90;;;;;;4970888;28;20046;-77
2023/09/15 09:02:55;;;;;;;5.25;2.30;;;18.30;99.90;;;;;;4973299;28;20031;-77
2023/09/15 09:05:21;;;;;;;9.32;3.35;;;17.80;99.90;;;;;;4956954;28;20482;-76
2023/09/15 09:07:47;;;;;;;3.65;1.90;;;18.20;99.90;;;;;;4985108;28;20258;-77
2023/09/15 09:10:12;;;;;;;3.97;2.13;;;18.30;99.90;;;;;;4957609;28;20041;-77
2023/09/15 09:12:38;;;;;;;4.85;1.70;;;18.00;99.90;;;;;;4938984;28;20038;-76
2023/09/15 09:15:04;;;;;;;2.40;1.55;;;19.00;99.90;;;;;;4972612;28;20031;-77
2023/09/15 09:17:30;;;;;;;6.00;2.10;;;19.40;99.90;;;;;;4972726;28;20058;-77
2023/09/15 09:19:56;;;;;;;3.60;2.20;;;19.00;99.90;;;;;;4960429;28;20034;-78
2023/09/15 09:22:22;;;;;;;5.85;2.47;;;18.90;99.90;;;;;;4961279;28;20125;-77
2023/09/15 09:24:55;;;;;;;3.90;1.88;;;18.50;99.90;;;;;;4970819;28;20126;-77
2023/09/15 09:27:21;;;;;;;8.35;3.05;;;19.40;99.90;;;;;;4992739;28;20036;-77
2023/09/15 09:29:46;;;;;;;5.43;2.13;;;19.60;99.90;;;;;;4973644;28;20038;-77
2023/09/15 09:32:15;;;;;;;7.40;2.75;;;19.70;99.90;;;;;;4973520;28;20043;-76
2023/09/15 09:34:41;;;;;;;4.32;2.05;;;19.40;99.90;;;;;;4959461;28;20492;-77
2023/09/15 09:37:07;;;;;;;5.43;2.50;;;19.40;99.90;;;;;;4971335;28;20034;-76
2023/09/15 09:39:33;;;;;;;3.92;2.38;;;19.60;99.90;;;;;;4973787;28;20038;-77
2023/09/15 09:41:59;;;;;;;3.47;2.40;;;18.70;99.90;;;;;;4971805;28;20088;-77
2023/09/15 09:44:25;;;;;;;4.03;1.90;;;18.80;99.90;;;;;;4956406;28;20035;-78
2023/09/15 09:46:53;;;;;;;5.03;2.25;;;19.70;99.90;;;;;;4985757;28;20117;-77
2023/09/15 09:49:21;;;;;;;3.35;2.13;;;20.30;99.90;;;;;;4973757;28;20134;-78
2023/09/15 09:51:50;;;;;;;4.30;2.67;;;20.60;99.90;;;;;;4954026;28;20092;-77
2023/09/15 09:54:16;;;;;;;4.28;2.78;;;20.60;99.90;;;;;;4939674;28;20039;-77
2023/09/15 09:56:48;;;;;;;4.97;2.33;;;20.20;99.90;;;;;;4970716;28;20037;-78
2023/09/15 09:59:15;;;;;;;6.53;2.85;;;20.10;99.90;;;;;;4956823;28;20039;-78
2023/09/15 10:01:41;;;;;;;7.15;2.50;;;19.40;99.90;;;;;;4973500;28;20045;-78
2023/09/15 10:04:07;;;;;;;6.18;3.20;;;19.70;99.90;;;;;;4968190;28;20039;-78
2023/09/15 10:06:38;;;;;;;3.33;2.38;;;20.70;99.90;;;;;;4971635;28;20023;-78
2023/09/15 10:09:08;;;;;;;3.60;1.80;;;21.70;99.80;;;;;;4954573;28;20440;-77
2023/09/15 10:11:34;;;;;;;3.88;2.90;;;21.50;99.90;;;;;;4954560;28;20563;-77
2023/09/15 10:14:03;;;;;;;7.78;2.78;;;22.10;99.70;;;;;;4972023;28;20411;-78
2023/09/15 10:16:33;;;;;;;7.40;2.10;;;21.30;99.90;;;;;;4973358;28;20039;-77
2023/09/15 10:19:02;;;;;;;3.67;2.30;;;21.60;99.90;;;;;;4986770;28;20041;-78
2023/09/15 10:21:28;;;;;;;5.85;2.13;;;22.90;97.50;;;;;;4955831;28;20047;-77
2023/09/15 10:24:09;;;;;;;7.05;2.75;;;23.20;97.00;;;;;;4973580;28;20094;-78
2023/09/15 10:26:35;;;;;;;5.53;2.88;;;23.20;97.00;;;;;;4986320;28;20235;-78
2023/09/15 10:29:04;;;;;;;3.40;2.20;;;22.70;99.40;;;;;;4954727;28;20121;-77
2023/09/15 10:31:34;;;;;;;6.18;2.65;;;22.10;99.40;;;;;;4974450;28;20526;-78
2023/09/15 10:34:02;;;;;;;5.85;2.70;;;21.70;98.80;;;;;;4973371;28;20038;-78
2023/09/15 10:36:28;;;;;;;5.32;3.05;;;21.10;99.60;;;;;;4969529;28;20069;-77
2023/09/15 10:38:54;;;;;;;7.20;3.03;;;20.70;98.30;;;;;;4970666;28;20142;-78
2023/09/15 10:41:29;;;;;;;5.18;2.50;;;20.60;99.90;;;;;;4969416;28;20547;-78
2023/09/15 10:43:55;;;;;;;5.50;2.80;;;21.60;97.80;;;;;;4968610;28;20507;-77
2023/09/15 10:46:20;;;;;;;4.55;2.70;;;22.10;96.70;;;;;;4971426;28;20062;-76
2023/09/15 10:48:47;;;;;;;6.53;3.17;;;22.70;97.50;;;;;;4966005;28;20129;-77
2023/09/15 10:51:15;;;;;;;3.92;2.00;;;23.00;99.20;;;;;;4968033;28;20453;-77
2023/09/15 10:53:44;;;;;;;3.97;2.08;;;24.20;95.90;;;;;;4985074;28;20835;-76
2023/09/15 10:56:10;;;;;;;4.40;1.95;;;25.10;94.00;;;;;;4971127;28;20039;-77
2023/09/15 10:58:38;;;;;;;3.08;1.88;;;25.40;93.00;;;;;;4972352;28;20359;-77
2023/09/15 11:01:05;;;;;;;2.95;1.48;;;24.70;94.60;;;;;;4972431;28;20046;-77
2023/09/15 11:03:31;;;;;;;3.25;2.10;;;25.10;93.70;;;;;;4970001;28;20045;-77
2023/09/15 11:05:58;;;;;;;2.63;1.55;;;26.00;91.00;;;;;;4970614;28;21520;-76
2023/09/15 11:08:24;;;;;;;4.05;1.92;;;25.80;92.00;;;;;;4971296;28;20463;-77
2023/09/15 11:10:59;;;;;;;3.55;1.70;;;25.30;92.90;;;;;;4969499;28;20380;-78
2023/09/15 11:13:25;;;;;;;2.88;1.27;;;25.50;92.60;;;;;;4969475;28;20154;-78
2023/09/15 11:15:51;;;;;;;2.38;1.48;;;26.10;90.70;;;;;;4972469;28;20069;-77
2023/09/15 11:18:19;;;;;;;3.30;1.58;;;26.40;89.70;;;;;;4976884;28;20034;-77
2023/09/15 11:20:45;;;;;;;3.08;1.52;;;26.40;90.30;;;;;;4978151;28;20031;-78
2023/09/15 11:23:11;;;;;;;3.97;1.60;;;26.30;89.30;;;;;;4973571;28;20463;-78
2023/09/15 11:25:37;;;;;;;3.10;1.70;;;26.50;86.80;;;;;;4968687;28;20066;-78
2023/09/15 11:28:03;;;;;;;4.30;1.88;;;27.30;85.50;;;;;;4972291;28;20438;-79
2023/09/15 11:30:31;;;;;;;5.18;1.95;;;26.40;89.30;;;;;;4972328;28;20117;-77
2023/09/15 11:33:01;;;;;;;1.85;1.40;;;26.30;89.40;;;;;;4957556;28;20030;-78
2023/09/15 11:35:27;;;;;;;3.60;1.52;;;26.40;89.70;;;;;;4973386;28;20033;-78
2023/09/15 11:37:53;;;;;;;2.92;2.20;;;26.20;89.80;;;;;;4264786;28;10000336;-77
2023/09/15 11:40:19;;;;;;;6.05;2.03;;;25.50;90.90;;;;;;4967546;28;20073;-77
2023/09/15 11:43:01;;;;;;;3.42;2.10;;;25.30;91.80;;;;;;4968699;28;20398;-79
2023/09/15 11:45:28;;;;;;;2.40;1.52;;;26.50;90.40;;;;;;4950957;28;20034;-78
2023/09/15 11:47:55;;;;;;;3.42;2.13;;;27.60;86.70;;;;;;4969812;28;20063;-78
2023/09/15 11:50:21;;;;;;;2.17;1.40;;;28.40;80.10;;;;;;4969811;28;20054;-79
2023/09/15 11:52:46;;;;;;;3.95;1.40;;;28.40;81.40;;;;;;4971316;28;20558;-78
2023/09/15 11:55:22;;;;;;;2.58;1.67;;;27.80;85.10;;;;;;4935387;28;20039;-78
2023/09/15 11:57:50;;;;;;;2.50;1.35;;;27.90;82.40;;;;;;4950844;28;20049;-78
2023/09/15 12:00:17;;;;;;;3.25;1.73;;;28.60;80.30;;;;;;4967364;28;20450;-78
2023/09/15 12:06:00;;;;;;;2.28;1.38;;;28.50;80.20;;;;;;4930552;28;20031;-78
2023/09/15 12:08:27;;;;;;;3.78;1.70;;;28.50;79.90;;;;;;4992431;28;20141;-80
2023/09/15 12:10:53;;;;;;;4.20;2.22;;;29.60;75.40;;;;;;4969057;28;20031;-78
2023/09/15 12:13:18;;;;;;;4.57;1.63;;;29.10;79.30;;;;;;4984626;28;20030;-79
2023/09/15 12:15:46;;;;;;;2.72;1.40;;;28.70;76.20;;;;;;4967556;28;20399;-79
2023/09/15 12:18:13;;;;;;;3.25;1.80;;;29.40;76.40;;;;;;4954765;28;20042;-78
2023/09/15 12:20:38;;;;;;;2.42;1.92;;;29.30;76.10;;;;;;4947616;28;20035;-79
2023/09/15 12:23:11;;;;;;;2.42;1.92;;;28.50;77.00;;;;;;4955651;28;20041;-79
2023/09/15 12:25:37;;;;;;;3.22;1.70;;;28.10;79.50;;;;;;4969729;28;20097;-79
2023/09/15 12:28:03;;;;;;;5.43;2.05;;;27.90;79.60;;;;;;4972753;28;20018;-79
2023/09/15 12:30:30;;;;;;;3.53;1.30;;;29.10;76.60;;;;;;4967619;28;20150;-79
2023/09/15 12:32:55;;;;;;;9.27;1.92;;;28.90;78.00;;;;;;4973906;28;20030;-79
2023/09/15 12:35:21;;;;;;;2.25;1.25;;;29.30;76.40;;;;;;4971737;28;20030;-79
2023/09/15 12:37:46;;;;;;;1.50;1.35;;;29.00;78.10;;;;;;4953642;28;20122;-79
2023/09/15 12:40:13;;;;;;;3.50;1.77;;;28.60;77.40;;;;;;4970454;28;20482;-78
2023/09/15 12:42:39;;;;;;;2.42;1.65;;;28.70;76.20;;;;;;4970076;28;20458;-78
2023/09/15 12:45:06;;;;;;;3.33;1.65;;;27.30;78.50;;;;;;4968478;28;20058;-79
2023/09/15 12:47:33;;;;;;;1.98;1.42;;;28.70;74.20;;;;;;4971063;28;20023;-78